Flying Cat 3 — SX6671 — position and weather

sailwx.info

Track history (hours):
 
Tides and Currents Weather Stations Pressure Air Temp Water Temp Dewpoint Dewpoint Depression Visibility Wind Speed Wind Dir Waves Ship Positions

Flying Cat 3

Last reported at 2016-Sep-26 11:22 UTC. Time now 2016-Dec-09 07:45 UTC.
Position N 37°57' E 023°38'.
Warning: this ship's position is months out of date.

Length 48 m; draft 1.5 m.

Type: High speed craft. MMSI: 239552000.

Date/timePositionNaut miles runAvg speedWind from/ knotsBaromVisibWave heightAir tempDewpointWater temp
2016-Sep-26 11:22N 37°57' E 023°38'0 0.0
2016-Sep-25 12:32N 37°57' E 023°39'0 0.0
2016-Sep-25 11:30N 37°57' E 023°39'0 0.0
2016-Sep-25 10:29N 37°57' E 023°39'0 0.0
2016-Sep-25 07:31N 37°57' E 023°39'0 0.0
2016-Sep-25 04:31N 37°57' E 023°39'0 0.0
2016-Sep-25 00:31N 37°57' E 023°39'0 0.0
2016-Sep-24 22:28N 37°57' E 023°39'0 0.0
2016-Sep-24 21:31N 37°57' E 023°39'0 0.0
2016-Sep-24 19:31N 37°57' E 023°39'0 0.0
2016-Sep-24 18:31N 37°57' E 023°39'0 0.0
2016-Sep-24 17:28N 37°57' E 023°39'0 0.0
2016-Sep-24 16:28N 37°57' E 023°39'13 6.9
2016-Sep-24 14:34N 37°44' E 023°34'2411.3
2016-Sep-24 12:29N 37°22' E 023°24'3719.1
2016-Sep-24 10:33N 37°57' E 023°39'1818.4
2016-Sep-24 09:33N 37°39' E 023°31'18 3.0
2016-Sep-24 03:27N 37°57' E 023°39'0 0.0
2016-Sep-24 02:30N 37°57' E 023°39'0 0.0
2016-Sep-24 01:30N 37°57' E 023°39'0 0.0
2016-Sep-24 00:33N 37°57' E 023°39'0 0.0
2016-Sep-23 19:33N 37°57' E 023°39'0 0.0
2016-Sep-23 17:33N 37°57' E 023°39'0 0.0
2016-Sep-23 16:33N 37°57' E 023°39'0 0.0
2016-Sep-23 15:27N 37°57' E 023°39'0 0.0
2016-Sep-23 13:33N 37°57' E 023°39'0 0.0
2016-Sep-23 09:33N 37°57' E 023°39'0 0.0
2016-Sep-23 06:33N 37°57' E 023°39'0 0.0
2016-Sep-23 04:33N 37°57' E 023°39'0 0.0
2016-Sep-23 03:33N 37°57' E 023°39'0 0.0
2016-Sep-23 02:33N 37°57' E 023°39'0 0.0
2016-Sep-23 01:33N 37°57' E 023°39'0 0.0
2016-Sep-23 00:33N 37°57' E 023°39'0 0.0
2016-Sep-22 23:33N 37°57' E 023°39'0 0.0
2016-Sep-22 20:33N 37°57' E 023°39'0 0.0
2016-Sep-22 12:33N 37°57' E 023°39'0 0.0
2016-Sep-22 04:33N 37°57' E 023°39'0 0.0
2016-Sep-22 03:33N 37°57' E 023°39'0 0.0
2016-Sep-22 00:33N 37°57' E 023°39'0 0.0
2016-Sep-21 23:33N 37°57' E 023°39'0 0.0
2016-Sep-21 22:33N 37°57' E 023°39'0 0.0
2016-Sep-21 19:33N 37°57' E 023°39'0 0.0
2016-Sep-21 16:33N 37°57' E 023°39'18 2.5
2016-Sep-21 09:34N 37°40' E 023°31'1914.3
2016-Sep-21 08:16N 37°22' E 023°26'20 7.2
2016-Sep-21 05:34N 37°41' E 023°32'17 8.0
2016-Sep-21 03:28N 37°57' E 023°39'0 0.0
2016-Sep-21 02:28N 37°57' E 023°39'0 0.0
2016-Sep-20 17:28N 37°57' E 023°39'13 4.4
2016-Sep-20 14:33N 37°44' E 023°35'13 3.2
2016-Sep-20 10:33N 37°57' E 023°38'3615.7
2016-Sep-20 08:16N 37°22' E 023°26'8 3.9
2016-Sep-20 06:19N 37°29' E 023°30'29 7.6
2016-Sep-20 02:33N 37°57' E 023°39'0 0.0
2016-Sep-19 23:33N 37°57' E 023°39'0 0.0
2016-Sep-19 19:30N 37°57' E 023°39'0 0.0
2016-Sep-19 18:30N 37°57' E 023°39'0 0.0
2016-Sep-19 16:30N 37°57' E 023°39'14 7.1
2016-Sep-19 14:34N 37°43' E 023°34'2411.7
2016-Sep-19 12:32N 37°22' E 023°21'9 9.4
2016-Sep-19 11:33N 37°30' E 023°27'11 5.5
2016-Sep-19 09:33N 37°41' E 023°31'13 4.2
2016-Sep-19 06:23N 37°27' E 023°32'3010.4
2016-Sep-19 03:33N 37°57' E 023°39'0 0.0
2016-Sep-19 02:33N 37°57' E 023°39'0 0.0
2016-Sep-19 00:33N 37°57' E 023°39'0 0.0
2016-Sep-18 19:33N 37°57' E 023°39'16 3.9
2016-Sep-18 15:33N 37°42' E 023°32'1615.5
2016-Sep-18 14:33N 37°57' E 023°39'31 7.7
2016-Sep-18 10:29N 37°26' E 023°33'1516.6
2016-Sep-18 09:33N 37°41' E 023°32'16 2.3
2016-Sep-18 02:31N 37°57' E 023°39'0 0.0
2016-Sep-18 01:31N 37°57' E 023°39'0 0.0
2016-Sep-18 00:28N 37°57' E 023°39'0 0.0
2016-Sep-17 22:28N 37°57' E 023°39'0 0.0
2016-Sep-17 21:31N 37°57' E 023°39'0 0.0
2016-Sep-17 20:31N 37°57' E 023°39'0 0.0
2016-Sep-17 19:10N 37°57' E 023°39'39 6.9
2016-Sep-17 13:30N 37°20' E 023°22'6 5.5
2016-Sep-17 12:24N 37°23' E 023°16'3116.7
2016-Sep-17 10:34N 37°49' E 023°36'7 7.4
2016-Sep-17 09:33N 37°57' E 023°39'3429.8
2016-Sep-17 08:26N 37°24' E 023°30'8 6.1
2016-Sep-17 07:07N 37°20' E 023°22'3925.1
2016-Sep-17 05:33N 37°57' E 023°38'0 0.3
2016-Sep-17 04:31N 37°57' E 023°39'0 0.0
2016-Sep-17 00:31N 37°57' E 023°39'28 3.1
2016-Sep-16 15:33N 37°30' E 023°27'  
Track history (hours):
 
Tides and Currents Weather Stations Pressure Air Temp Water Temp Dewpoint Dewpoint Depression Visibility Wind Speed Wind Dir Waves Ship Positions

Flying Cat 3

Last reported at 2016-Sep-26 11:22 UTC. Time now 2016-Dec-09 07:45 UTC.
Position N 37°57' E 023°38'.
Warning: this ship's position is months out of date.

Length 48 m; draft 1.5 m.

Type: High speed craft. MMSI: 239552000.

Date/timePositionNaut miles runAvg speedWind from/ knotsBaromVisibWave heightAir tempDewpointWater temp
2016-Sep-26 11:22N 37°57' E 023°38'0 0.0
2016-Sep-25 12:32N 37°57' E 023°39'0 0.0
2016-Sep-25 11:30N 37°57' E 023°39'0 0.0
2016-Sep-25 10:29N 37°57' E 023°39'0 0.0
2016-Sep-25 07:31N 37°57' E 023°39'0 0.0
2016-Sep-25 04:31N 37°57' E 023°39'0 0.0
2016-Sep-25 00:31N 37°57' E 023°39'0 0.0
2016-Sep-24 22:28N 37°57' E 023°39'0 0.0
2016-Sep-24 21:31N 37°57' E 023°39'0 0.0
2016-Sep-24 19:31N 37°57' E 023°39'0 0.0
2016-Sep-24 18:31N 37°57' E 023°39'0 0.0
2016-Sep-24 17:28N 37°57' E 023°39'0 0.0
2016-Sep-24 16:28N 37°57' E 023°39'13 6.9
2016-Sep-24 14:34N 37°44' E 023°34'2411.3
2016-Sep-24 12:29N 37°22' E 023°24'3719.1
2016-Sep-24 10:33N 37°57' E 023°39'1818.4
2016-Sep-24 09:33N 37°39' E 023°31'18 3.0
2016-Sep-24 03:27N 37°57' E 023°39'0 0.0
2016-Sep-24 02:30N 37°57' E 023°39'0 0.0
2016-Sep-24 01:30N 37°57' E 023°39'0 0.0
2016-Sep-24 00:33N 37°57' E 023°39'0 0.0
2016-Sep-23 19:33N 37°57' E 023°39'0 0.0
2016-Sep-23 17:33N 37°57' E 023°39'0 0.0
2016-Sep-23 16:33N 37°57' E 023°39'0 0.0
2016-Sep-23 15:27N 37°57' E 023°39'0 0.0
2016-Sep-23 13:33N 37°57' E 023°39'0 0.0
2016-Sep-23 09:33N 37°57' E 023°39'0 0.0
2016-Sep-23 06:33N 37°57' E 023°39'0 0.0
2016-Sep-23 04:33N 37°57' E 023°39'0 0.0
2016-Sep-23 03:33N 37°57' E 023°39'0 0.0
2016-Sep-23 02:33N 37°57' E 023°39'0 0.0
2016-Sep-23 01:33N 37°57' E 023°39'0 0.0
2016-Sep-23 00:33N 37°57' E 023°39'0 0.0
2016-Sep-22 23:33N 37°57' E 023°39'0 0.0
2016-Sep-22 20:33N 37°57' E 023°39'0 0.0
2016-Sep-22 12:33N 37°57' E 023°39'0 0.0
2016-Sep-22 04:33N 37°57' E 023°39'0 0.0
2016-Sep-22 03:33N 37°57' E 023°39'0 0.0
2016-Sep-22 00:33N 37°57' E 023°39'0 0.0
2016-Sep-21 23:33N 37°57' E 023°39'0 0.0
2016-Sep-21 22:33N 37°57' E 023°39'0 0.0
2016-Sep-21 19:33N 37°57' E 023°39'0 0.0
2016-Sep-21 16:33N 37°57' E 023°39'18 2.5
2016-Sep-21 09:34N 37°40' E 023°31'1914.3
2016-Sep-21 08:16N 37°22' E 023°26'20 7.2
2016-Sep-21 05:34N 37°41' E 023°32'17 8.0
2016-Sep-21 03:28N 37°57' E 023°39'0 0.0
2016-Sep-21 02:28N 37°57' E 023°39'0 0.0
2016-Sep-20 17:28N 37°57' E 023°39'13 4.4
2016-Sep-20 14:33N 37°44' E 023°35'13 3.2
2016-Sep-20 10:33N 37°57' E 023°38'3615.7
2016-Sep-20 08:16N 37°22' E 023°26'8 3.9
2016-Sep-20 06:19N 37°29' E 023°30'29 7.6
2016-Sep-20 02:33N 37°57' E 023°39'0 0.0
2016-Sep-19 23:33N 37°57' E 023°39'0 0.0
2016-Sep-19 19:30N 37°57' E 023°39'0 0.0
2016-Sep-19 18:30N 37°57' E 023°39'0 0.0
2016-Sep-19 16:30N 37°57' E 023°39'14 7.1
2016-Sep-19 14:34N 37°43' E 023°34'2411.7
2016-Sep-19 12:32N 37°22' E 023°21'9 9.4
2016-Sep-19 11:33N 37°30' E 023°27'11 5.5
2016-Sep-19 09:33N 37°41' E 023°31'13 4.2
2016-Sep-19 06:23N 37°27' E 023°32'3010.4
2016-Sep-19 03:33N 37°57' E 023°39'0 0.0
2016-Sep-19 02:33N 37°57' E 023°39'0 0.0
2016-Sep-19 00:33N 37°57' E 023°39'0 0.0
2016-Sep-18 19:33N 37°57' E 023°39'16 3.9
2016-Sep-18 15:33N 37°42' E 023°32'1615.5
2016-Sep-18 14:33N 37°57' E 023°39'31 7.7
2016-Sep-18 10:29N 37°26' E 023°33'1516.6
2016-Sep-18 09:33N 37°41' E 023°32'16 2.3
2016-Sep-18 02:31N 37°57' E 023°39'0 0.0
2016-Sep-18 01:31N 37°57' E 023°39'0 0.0
2016-Sep-18 00:28N 37°57' E 023°39'0 0.0
2016-Sep-17 22:28N 37°57' E 023°39'0 0.0
2016-Sep-17 21:31N 37°57' E 023°39'0 0.0
2016-Sep-17 20:31N 37°57' E 023°39'0 0.0
2016-Sep-17 19:10N 37°57' E 023°39'39 6.9
2016-Sep-17 13:30N 37°20' E 023°22'6 5.5
2016-Sep-17 12:24N 37°23' E 023°16'3116.7
2016-Sep-17 10:34N 37°49' E 023°36'7 7.4
2016-Sep-17 09:33N 37°57' E 023°39'3429.8
2016-Sep-17 08:26N 37°24' E 023°30'8 6.1
2016-Sep-17 07:07N 37°20' E 023°22'3925.1
2016-Sep-17 05:33N 37°57' E 023°38'0 0.3
2016-Sep-17 04:31N 37°57' E 023°39'0 0.0
2016-Sep-17 00:31N 37°57' E 023°39'28 3.1
2016-Sep-16 15:33N 37°30' E 023°27'  

Dump ship's entire track history